createdAt,value
2019-05-16T00:00:58.771Z,47.79
2019-05-16T00:03:27.942Z,48.44
2019-05-16T00:05:58.227Z,48.74
2019-05-16T00:08:24.735Z,48.75
2019-05-16T00:10:54.915Z,48.04
2019-05-16T00:13:21.946Z,47.45
2019-05-16T00:15:49.058Z,47.34
2019-05-16T00:18:17.860Z,47.56
2019-05-16T00:20:49.264Z,46.81
2019-05-16T00:23:18.236Z,47.02
2019-05-16T00:25:47.877Z,46.23
2019-05-16T00:28:18.002Z,46.94
2019-05-16T00:30:45.415Z,47.40
2019-05-16T00:33:12.479Z,47.70
2019-05-16T00:35:39.552Z,48.07
2019-05-16T00:38:08.623Z,48.49
2019-05-16T00:40:38.042Z,48.49
2019-05-16T00:43:04.734Z,48.18
2019-05-16T00:45:31.999Z,47.66
2019-05-16T00:47:59.277Z,47.20
2019-05-16T00:50:28.807Z,47.01
2019-05-16T00:52:59.256Z,46.78
2019-05-16T00:55:28.406Z,47.24
2019-05-16T00:57:58.408Z,47.47
2019-05-16T01:00:45.968Z,48.31
2019-05-16T01:03:13.174Z,48.24
2019-05-16T01:05:40.374Z,48.15
2019-05-16T01:08:07.939Z,48.16
2019-05-16T01:10:35.423Z,47.91
2019-05-16T01:13:02.619Z,47.56
2019-05-16T01:15:31.020Z,47.24
2019-05-16T01:17:58.869Z,47.06
2019-05-16T01:20:27.960Z,47.01
2019-05-16T01:22:58.154Z,47.40
2019-05-16T01:25:28.224Z,47.23
2019-05-16T01:27:55.441Z,47.53
2019-05-16T01:30:22.461Z,48.02
2019-05-16T01:32:49.520Z,48.03
2019-05-16T01:35:18.822Z,48.44
2019-05-16T01:37:45.879Z,48.49
2019-05-16T01:40:13.817Z,48.85
2019-05-16T01:42:40.941Z,49.13
2019-05-16T01:45:09.146Z,49.51
2019-05-16T01:47:36.436Z,50.31
2019-05-16T01:50:04.067Z,50.72
2019-05-16T01:52:32.593Z,50.97
2019-05-16T01:54:59.674Z,51.15
2019-05-16T01:57:28.227Z,51.38
2019-05-16T01:59:55.572Z,50.91
2019-05-16T02:02:22.650Z,51.15
2019-05-16T02:04:49.699Z,50.74
2019-05-16T02:07:18.767Z,50.47
2019-05-16T02:09:47.698Z,51.02
2019-05-16T02:12:18.489Z,50.89
2019-05-16T02:14:45.520Z,51.07
2019-05-16T02:17:13.961Z,51.73
2019-05-16T02:19:40.983Z,52.19
2019-05-16T02:22:09.177Z,52.43
2019-05-16T02:24:38.398Z,52.59
2019-05-16T02:27:05.719Z,52.51
2019-05-16T02:29:32.766Z,52.64
2019-05-16T02:32:02.051Z,53.23
2019-05-16T02:34:30.759Z,52.99
2019-05-16T02:37:18.027Z,53.70
2019-05-16T02:39:26.739Z,53.68
2019-05-16T02:41:54.196Z,53.31
2019-05-16T02:44:24.599Z,51.86
2019-05-16T02:46:50.925Z,51.98
2019-05-16T02:49:21.414Z,52.80
2019-05-16T02:51:47.236Z,52.79
2019-05-16T02:54:15.547Z,53.21
2019-05-16T02:56:42.571Z,53.86
2019-05-16T02:59:11.903Z,54.91
2019-05-16T03:01:40.939Z,55.53
2019-05-16T03:04:10.785Z,55.31
2019-05-16T03:06:40.854Z,54.05
2019-05-16T03:09:07.102Z,54.08
2019-05-16T03:11:34.602Z,54.51
2019-05-16T03:14:03.476Z,54.73
2019-05-16T03:16:31.910Z,53.87
2019-05-16T03:19:01.767Z,55.08
2019-05-16T03:21:56.170Z,55.05
2019-05-16T03:25:16.054Z,55.17
2019-05-16T03:27:51.242Z,55.16
2019-05-16T03:30:23.344Z,54.83
2019-05-16T03:32:47.088Z,53.67
2019-05-16T03:35:16.881Z,53.38
2019-05-16T03:37:55.020Z,53.26
2019-05-16T03:40:14.966Z,54.73
2019-05-16T03:42:42.166Z,54.63
2019-05-16T03:45:10.773Z,55.87
2019-05-16T03:47:42.256Z,56.00
2019-05-16T03:50:10.853Z,55.90
2019-05-16T03:52:40.217Z,55.86
2019-05-16T03:55:05.938Z,55.98
2019-05-16T03:57:33.042Z,56.52
2019-05-16T04:00:00.847Z,57.39
2019-05-16T04:02:31.039Z,58.12
2019-05-16T04:05:02.432Z,58.59
2019-05-16T04:07:31.993Z,58.54
2019-05-16T04:10:02.157Z,58.49
2019-05-16T04:12:30.871Z,58.30
2019-05-16T04:14:57.587Z,57.60
2019-05-16T04:17:25.946Z,56.96
2019-05-16T04:19:52.999Z,56.89
2019-05-16T04:22:21.524Z,57.33
2019-05-16T04:24:51.265Z,56.27
2019-05-16T04:27:21.204Z,54.89
2019-05-16T04:29:46.884Z,54.76
2019-05-16T04:32:14.311Z,55.31
2019-05-16T04:34:43.607Z,55.20
2019-05-16T04:37:11.851Z,55.06
2019-05-16T04:39:41.454Z,54.76
2019-05-16T04:42:10.817Z,54.37
2019-05-16T04:44:37.056Z,53.94
2019-05-16T04:47:11.022Z,53.97
2019-05-16T04:49:41.196Z,54.09
2019-05-16T04:52:11.326Z,53.35
2019-05-16T04:54:42.765Z,53.00
2019-05-16T04:57:13.345Z,52.13
2019-05-16T04:59:46.554Z,52.85
2019-05-16T05:02:21.196Z,52.24
2019-05-16T05:04:50.716Z,52.43
2019-05-16T05:07:16.638Z,51.61
2019-05-16T05:09:51.341Z,52.26
2019-05-16T05:12:20.810Z,52.06
2019-05-16T05:14:47.492Z,52.37
2019-05-16T05:17:15.574Z,51.10
2019-05-16T05:19:42.697Z,50.70
2019-05-16T05:22:11.509Z,51.03
2019-05-16T05:24:40.598Z,49.70
2019-05-16T05:27:07.572Z,49.81
2019-05-16T05:29:35.731Z,49.08
2019-05-16T05:32:04.922Z,48.47
2019-05-16T05:34:34.035Z,48.55
2019-05-16T05:37:01.147Z,48.30
2019-05-16T05:39:30.291Z,48.71
2019-05-16T05:41:59.915Z,49.14
2019-05-16T05:44:26.393Z,48.45
2019-05-16T05:46:53.675Z,46.92
2019-05-16T05:49:20.718Z,45.75
2019-05-16T05:52:06.581Z,46.38
2019-05-16T05:54:36.616Z,46.34
2019-05-16T05:57:03.700Z,47.07
2019-05-16T05:59:30.834Z,46.79
2019-05-16T06:02:00.577Z,46.09
2019-05-16T06:04:26.847Z,45.31
2019-05-16T06:06:53.909Z,45.52
2019-05-16T06:09:28.438Z,45.88
2019-05-16T06:11:50.284Z,44.28
2019-05-16T06:14:17.567Z,45.58
2019-05-16T06:16:46.857Z,45.98
2019-05-16T06:19:13.952Z,46.56
2019-05-16T06:21:44.949Z,45.51
2019-05-16T06:24:10.786Z,44.55
2019-05-16T06:26:39.796Z,44.37
2019-05-16T06:29:06.914Z,43.80
2019-05-16T06:31:34.157Z,44.83
2019-05-16T06:34:07.831Z,45.14
2019-05-16T06:36:30.618Z,43.22
2019-05-16T06:39:00.457Z,42.57
2019-05-16T06:41:30.440Z,42.69
2019-05-16T06:43:59.946Z,41.40
2019-05-16T06:46:30.645Z,42.93
2019-05-16T06:48:59.634Z,43.10
2019-05-16T06:51:26.916Z,43.95
2019-05-16T06:53:54.466Z,46.19
2019-05-16T06:56:23.584Z,47.35
2019-05-16T06:59:01.923Z,50.74
2019-05-16T07:01:29.829Z,45.42
2019-05-16T07:03:57.032Z,45.86
2019-05-16T07:06:47.375Z,45.48
2019-05-16T07:08:53.514Z,43.07
2019-05-16T07:11:20.541Z,42.65
2019-05-16T07:13:51.686Z,42.56
2019-05-16T07:16:16.672Z,41.89
2019-05-16T07:18:44.830Z,39.93
2019-05-16T07:21:11.878Z,39.37
2019-05-16T07:23:40.447Z,40.16
2019-05-16T07:26:09.966Z,38.22
2019-05-16T07:28:40.630Z,38.13
2019-05-16T07:31:15.661Z,37.65
2019-05-16T07:33:40.676Z,40.09
2019-05-16T07:36:09.976Z,41.03
2019-05-16T07:38:40.055Z,40.72
2019-05-16T07:41:07.187Z,38.24
2019-05-16T07:43:36.180Z,38.12
2019-05-16T07:46:03.250Z,39.03
2019-05-16T07:48:31.782Z,39.72
2019-05-16T07:51:00.752Z,39.54
2019-05-16T07:53:32.830Z,39.77
2019-05-16T07:55:56.758Z,41.57
2019-05-16T07:58:23.920Z,40.09
2019-05-16T08:01:02.224Z,38.96
2019-05-16T08:03:20.123Z,36.13
2019-05-16T08:05:50.841Z,37.63
2019-05-16T08:08:16.321Z,38.77
2019-05-16T08:13:13.079Z,36.61
2019-05-16T08:15:41.659Z,34.21
2019-05-16T08:18:11.092Z,34.35
2019-05-16T08:20:37.728Z,34.63
2019-05-16T08:23:04.764Z,32.98
2019-05-16T08:25:34.350Z,36.21
2019-05-16T08:28:02.550Z,35.51
2019-05-16T08:30:36.438Z,38.24
2019-05-16T08:33:05.400Z,37.13
2019-05-16T08:35:32.669Z,33.76
2019-05-16T08:38:01.050Z,36.71
2019-05-16T08:40:31.305Z,37.63
2019-05-16T08:43:00.309Z,36.55
2019-05-16T08:45:26.826Z,36.62
2019-05-16T08:47:54.985Z,36.85
2019-05-16T08:50:05.093Z,38.54
2019-05-16T08:50:23.354Z,33.79
2019-05-16T08:52:52.937Z,36.13
2019-05-16T08:55:21.745Z,32.79
2019-05-16T08:57:53.028Z,32.30
2019-05-16T09:00:21.463Z,31.74
2019-05-16T09:02:47.142Z,30.93
2019-05-16T09:05:14.313Z,33.78
2019-05-16T09:07:45.986Z,31.78
2019-05-16T09:10:45.679Z,32.64
2019-05-16T09:12:47.724Z,33.77
2019-05-16T09:15:16.911Z,34.23
2019-05-16T09:17:43.317Z,33.63
2019-05-16T09:20:11.093Z,33.31
2019-05-16T09:22:38.111Z,33.73
2019-05-16T09:25:08.018Z,32.45
2019-05-16T09:27:34.555Z,34.13
2019-05-16T09:30:01.676Z,35.38
2019-05-16T09:32:28.723Z,35.88
2019-05-16T09:34:57.313Z,35.83
2019-05-16T09:37:26.743Z,35.66
2019-05-16T09:39:59.565Z,33.48
2019-05-16T09:42:27.666Z,31.95
2019-05-16T09:44:57.644Z,33.06
2019-05-16T09:47:24.286Z,34.03
2019-05-16T09:49:51.381Z,33.67
2019-05-16T09:52:18.443Z,34.03
2019-05-16T09:54:46.885Z,33.97
2019-05-16T09:57:14.287Z,33.58
2019-05-16T09:59:41.572Z,32.01
2019-05-16T10:02:08.987Z,34.08
2019-05-16T10:04:36.798Z,34.28
2019-05-16T10:07:06.517Z,33.56
2019-05-16T10:09:44.095Z,33.10
2019-05-16T10:12:11.326Z,33.76
2019-05-16T10:14:32.244Z,32.43
2019-05-16T10:16:59.342Z,31.14
2019-05-16T10:19:27.537Z,33.53
2019-05-16T10:22:00.013Z,32.36
2019-05-16T10:24:26.706Z,31.03
2019-05-16T10:26:54.072Z,30.92
2019-05-16T10:29:22.488Z,29.69
2019-05-16T10:32:18.434Z,26.05
2019-05-16T10:34:46.682Z,27.83
2019-05-16T10:37:14.269Z,30.11
2019-05-16T10:39:41.326Z,28.04
2019-05-16T10:42:23.596Z,28.06
2019-05-16T10:44:38.956Z,30.82
2019-05-16T10:47:07.547Z,30.23
2019-05-16T10:49:38.769Z,30.32
2019-05-16T10:52:03.790Z,33.01
2019-05-16T10:54:30.971Z,33.28
2019-05-16T10:56:58.522Z,32.20
2019-05-16T10:59:56.606Z,31.49
2019-05-16T11:01:56.362Z,28.72
2019-05-16T11:04:31.766Z,29.29
2019-05-16T11:06:53.400Z,31.08
2019-05-16T11:09:22.290Z,32.40
2019-05-16T11:11:49.337Z,34.48
2019-05-16T11:14:17.308Z,35.77
2019-05-16T11:16:47.186Z,34.27
2019-05-16T11:19:20.317Z,34.99
2019-05-16T11:21:43.106Z,34.44
2019-05-16T11:24:13.475Z,35.88
2019-05-16T11:26:40.642Z,33.51
2019-05-16T11:29:11.126Z,32.95
2019-05-16T11:31:38.262Z,32.03
2019-05-16T11:34:05.460Z,30.39
2019-05-16T11:36:32.624Z,27.67
2019-05-16T11:39:01.909Z,28.29
2019-05-16T11:41:30.544Z,24.38
2019-05-16T11:44:00.311Z,20.52
2019-05-16T11:46:29.478Z,20.21
2019-05-16T11:49:08.309Z,19.53
2019-05-16T11:51:38.194Z,19.11
2019-05-16T11:54:13.150Z,22.85
2019-05-16T11:56:42.969Z,27.52
2019-05-16T11:59:31.834Z,28.96
2019-05-16T12:02:33.367Z,29.08
2019-05-16T12:05:04.151Z,29.88
2019-05-16T12:07:35.616Z,32.10
2019-05-16T12:10:07.359Z,34.11
2019-05-16T12:12:33.448Z,34.45
2019-05-16T12:15:01.081Z,30.58
2019-05-16T12:17:36.350Z,32.45
2019-05-16T12:20:13.100Z,31.70
2019-05-16T12:22:48.269Z,29.47
2019-05-16T12:25:22.239Z,30.12
2019-05-16T12:27:50.201Z,31.49
2019-05-16T12:30:18.986Z,23.84
2019-05-16T12:32:47.464Z,18.91
2019-05-16T12:35:17.370Z,19.16
2019-05-16T12:37:47.937Z,21.75
2019-05-16T12:40:16.323Z,23.98
2019-05-16T12:42:55.039Z,21.58
2019-05-16T12:45:27.584Z,18.31
2019-05-16T12:47:54.417Z,18.11
2019-05-16T12:50:21.635Z,20.34
2019-05-16T12:52:50.543Z,25.17
2019-05-16T12:55:17.822Z,24.67
2019-05-16T12:57:48.963Z,29.54
2019-05-16T13:00:19.036Z,24.33
2019-05-16T13:02:47.335Z,28.65
2019-05-16T13:05:50.665Z,23.65
2019-05-16T13:08:17.725Z,22.25
2019-05-16T13:10:48.545Z,27.47
2019-05-16T13:13:17.675Z,24.80
2019-05-16T13:15:47.288Z,26.01
2019-05-16T13:18:14.056Z,30.25
2019-05-16T13:20:41.518Z,33.97
2019-05-16T13:23:14.439Z,36.45
2019-05-16T13:25:39.751Z,33.05
2019-05-16T13:28:08.222Z,30.84
2019-05-16T13:30:37.682Z,33.31
2019-05-16T13:33:07.277Z,31.08
2019-05-16T13:35:37.035Z,34.56
2019-05-16T13:38:03.852Z,36.39
2019-05-16T13:40:32.294Z,36.85
2019-05-16T13:42:59.411Z,38.04
2019-05-16T13:45:29.321Z,37.45
2019-05-16T13:47:57.282Z,37.63
2019-05-16T13:50:27.104Z,39.06
2019-05-16T13:52:54.690Z,38.83
2019-05-16T13:55:23.251Z,38.05
2019-05-16T13:57:50.599Z,40.68
2019-05-16T14:00:18.375Z,40.10
2019-05-16T14:02:47.609Z,37.08
2019-05-16T14:05:20.072Z,39.35
2019-05-16T14:07:48.261Z,38.87
2019-05-16T14:10:18.391Z,40.04
2019-05-16T14:12:49.729Z,38.75
2019-05-16T14:15:19.918Z,40.45
2019-05-16T14:17:49.011Z,41.99
2019-05-16T14:20:18.319Z,43.23
2019-05-16T14:22:57.309Z,42.00
2019-05-16T14:25:26.528Z,43.84
2019-05-16T14:27:53.615Z,45.87
2019-05-16T14:30:22.355Z,45.26
2019-05-16T14:32:50.933Z,45.67
2019-05-16T14:35:18.132Z,45.73
2019-05-16T14:37:46.861Z,45.54
2019-05-16T14:40:17.804Z,45.91
2019-05-16T14:42:47.965Z,45.00
2019-05-16T14:45:19.683Z,45.59
2019-05-16T14:47:53.867Z,45.69
2019-05-16T14:50:21.421Z,46.16
2019-05-16T14:52:48.541Z,46.85
2019-05-16T14:55:18.540Z,47.19
2019-05-16T14:57:51.533Z,47.03
2019-05-16T15:00:52.133Z,47.66
2019-05-16T15:03:19.224Z,47.83
2019-05-16T15:05:48.018Z,47.51
2019-05-16T15:08:47.446Z,47.35
2019-05-16T15:11:17.670Z,47.54
2019-05-16T15:13:43.747Z,48.32
2019-05-16T15:16:17.003Z,49.11
2019-05-16T15:18:47.521Z,49.59
2019-05-16T15:21:17.385Z,49.94
2019-05-16T15:23:45.290Z,49.76
2019-05-16T15:26:12.522Z,49.18
2019-05-16T15:28:39.935Z,47.72
2019-05-16T15:31:07.187Z,47.61
2019-05-16T15:33:36.700Z,48.54
2019-05-16T15:36:08.585Z,49.41
2019-05-16T15:38:39.617Z,50.27
2019-05-16T15:41:36.543Z,50.31
2019-05-16T15:44:38.615Z,51.17
2019-05-16T15:47:09.229Z,52.04
2019-05-16T15:50:07.951Z,52.11
2019-05-16T15:53:07.757Z,52.65
2019-05-16T15:55:47.057Z,53.87
2019-05-16T15:58:18.769Z,53.46
2019-05-16T16:00:48.845Z,52.66
2019-05-16T16:03:19.989Z,53.67
2019-05-16T16:06:07.402Z,54.02
2019-05-16T16:08:47.066Z,53.73
2019-05-16T16:11:23.787Z,54.46
2019-05-16T16:13:53.356Z,54.03
2019-05-16T16:16:24.083Z,54.10
2019-05-16T16:18:51.606Z,54.15
2019-05-16T16:21:21.834Z,54.28
2019-05-16T16:23:50.891Z,54.79
2019-05-16T16:26:18.052Z,54.91
2019-05-16T16:28:45.190Z,54.67
2019-05-16T16:31:12.432Z,54.88
2019-05-16T16:33:39.592Z,55.23
2019-05-16T16:36:07.774Z,55.93
2019-05-16T16:38:39.305Z,56.60
2019-05-16T16:41:39.865Z,56.96
2019-05-16T16:44:23.098Z,56.50
2019-05-16T16:46:50.210Z,56.82
2019-05-16T16:49:20.113Z,56.49
2019-05-16T16:51:48.279Z,56.18
2019-05-16T16:54:17.785Z,56.61
2019-05-16T16:56:55.566Z,56.31
2019-05-16T16:59:28.242Z,56.72
2019-05-16T17:01:57.184Z,55.98
2019-05-16T17:04:26.553Z,56.59
2019-05-16T17:06:53.560Z,57.21
2019-05-16T17:09:26.849Z,57.24
2019-05-16T17:12:06.598Z,57.55
2019-05-16T17:17:38.371Z,56.54
2019-05-16T17:20:09.248Z,56.29
2019-05-16T17:22:46.690Z,56.00
2019-05-16T17:25:15.183Z,56.43
2019-05-16T17:27:43.116Z,56.18
2019-05-16T17:30:16.956Z,56.12
2019-05-16T17:32:44.827Z,57.22
2019-05-16T17:35:18.520Z,56.87
2019-05-16T17:37:46.699Z,56.61
2019-05-16T17:40:17.652Z,56.75
2019-05-16T17:42:44.627Z,56.28
2019-05-16T17:45:18.040Z,56.19
2019-05-16T17:48:12.792Z,57.06
2019-05-16T17:51:17.521Z,58.04
2019-05-16T17:53:53.452Z,58.93
2019-05-16T17:56:41.661Z,59.17
2019-05-16T17:59:17.122Z,59.36
2019-05-16T18:01:46.322Z,59.05
2019-05-16T18:04:13.731Z,59.03
2019-05-16T18:06:47.235Z,59.79
2019-05-16T18:09:17.172Z,59.72
2019-05-16T18:11:47.178Z,59.88
2019-05-16T18:14:19.845Z,59.49
2019-05-16T18:16:58.549Z,59.65
2019-05-16T18:19:26.417Z,59.81
2019-05-16T18:21:53.697Z,60.81
2019-05-16T18:24:23.163Z,61.20
2019-05-16T18:26:53.414Z,60.95
2019-05-16T18:29:21.821Z,60.07
2019-05-16T18:38:28.212Z,59.39
2019-05-16T18:40:56.596Z,59.45
2019-05-16T18:43:36.465Z,60.19
2019-05-16T18:46:07.426Z,60.31
2019-05-16T18:48:36.773Z,60.72
2019-05-16T18:51:06.460Z,61.10
2019-05-16T18:53:39.021Z,62.19
2019-05-16T18:56:08.926Z,62.53
2019-05-16T18:58:39.925Z,63.10
2019-05-16T19:01:18.308Z,62.99
2019-05-16T19:03:49.041Z,62.73
2019-05-16T19:06:16.983Z,63.98
2019-05-16T19:08:51.342Z,63.87
2019-05-16T19:11:24.278Z,63.28
2019-05-16T19:13:51.689Z,63.72
2019-05-16T19:16:21.612Z,63.54
2019-05-16T19:18:48.826Z,63.92
2019-05-16T19:21:21.673Z,64.94
2019-05-16T19:23:48.822Z,65.10
2019-05-16T19:26:18.728Z,65.32
2019-05-16T19:28:46.734Z,66.47
2019-05-16T19:31:16.997Z,66.33
2019-05-16T19:33:48.583Z,66.22
2019-05-16T19:36:19.167Z,67.29
2019-05-16T19:39:07.562Z,68.52
2019-05-16T19:41:38.798Z,69.41
2019-05-16T19:44:10.148Z,69.70
2019-05-16T19:46:46.702Z,70.03
2019-05-16T19:49:15.663Z,70.14
2019-05-16T19:51:46.078Z,70.84
2019-05-16T19:54:17.543Z,71.14
2019-05-16T19:56:46.794Z,71.24
2019-05-16T19:59:14.199Z,72.35
2019-05-16T20:01:41.385Z,72.64
2019-05-16T20:04:08.882Z,72.82
2019-05-16T20:06:40.162Z,72.67
2019-05-16T20:09:16.631Z,73.35
2019-05-16T20:12:04.370Z,73.58
2019-05-16T20:14:33.869Z,73.10
2019-05-16T20:17:07.417Z,73.15
2019-05-16T20:19:36.409Z,72.64
2019-05-16T20:22:04.167Z,73.59
2019-05-16T20:24:31.830Z,73.79
2019-05-16T20:26:59.237Z,73.75
2019-05-16T20:29:29.436Z,74.42
2019-05-16T20:32:07.901Z,75.13
2019-05-16T20:34:41.417Z,74.73
2019-05-16T20:37:09.328Z,75.33
2019-05-16T20:39:37.187Z,75.40
2019-05-16T20:42:07.604Z,74.82
2019-05-16T20:44:37.285Z,74.29
2019-05-16T20:47:10.055Z,75.06
2019-05-16T20:49:38.283Z,75.63
2019-05-16T20:52:07.095Z,76.02
2019-05-16T20:54:37.635Z,76.21
2019-05-16T20:57:06.772Z,75.01
2019-05-16T20:59:33.840Z,75.37
2019-05-16T21:02:01.375Z,74.84
2019-05-16T21:04:30.716Z,74.39
2019-05-16T21:07:09.957Z,74.90
2019-05-16T21:09:33.187Z,74.30
2019-05-16T21:12:02.176Z,75.13
2019-05-16T21:14:29.783Z,75.59
2019-05-16T21:16:57.724Z,75.79
2019-05-16T21:19:25.115Z,75.12
2019-05-16T21:21:53.334Z,75.16
2019-05-16T21:24:22.174Z,75.37
2019-05-16T21:26:51.960Z,76.01
2019-05-16T21:29:19.575Z,76.51
2019-05-16T21:31:47.340Z,76.75
2019-05-16T21:34:16.067Z,75.63
2019-05-16T21:36:46.988Z,74.66
2019-05-16T21:39:17.470Z,74.38
2019-05-16T21:41:47.271Z,74.13
2019-05-16T21:44:18.368Z,73.82
2019-05-16T21:46:46.984Z,75.55
2019-05-16T21:49:19.318Z,75.30
2019-05-16T21:51:48.238Z,75.53
2019-05-16T21:54:15.409Z,75.49
2019-05-16T21:56:43.627Z,76.02
2019-05-16T21:59:12.516Z,75.88
2019-05-16T22:01:40.739Z,76.46
2019-05-16T22:04:07.962Z,76.04
2019-05-16T22:06:36.699Z,76.35
2019-05-16T22:09:06.749Z,75.98
2019-05-16T22:11:37.467Z,75.72
2019-05-16T22:14:06.466Z,75.94
2019-05-16T22:16:37.120Z,76.76
2019-05-16T22:19:06.938Z,77.03
2019-05-16T22:21:35.309Z,77.32
2019-05-16T22:24:06.405Z,77.35
2019-05-16T22:26:37.768Z,76.79
2019-05-16T22:29:06.936Z,76.88
2019-05-16T22:31:36.689Z,77.99
2019-05-16T22:34:03.718Z,78.46
2019-05-16T22:36:32.841Z,78.31
2019-05-16T22:38:59.942Z,77.67
2019-05-16T22:41:26.996Z,77.41
2019-05-16T22:43:54.088Z,77.62
2019-05-16T22:46:21.582Z,77.41
2019-05-16T22:48:50.964Z,77.40
2019-05-16T22:51:18.116Z,77.33
2019-05-16T22:53:45.150Z,77.10
2019-05-16T22:56:12.232Z,77.95
2019-05-16T22:58:39.377Z,77.37
2019-05-16T23:01:07.017Z,77.15
2019-05-16T23:03:35.158Z,77.25
2019-05-16T23:06:03.852Z,77.46
2019-05-16T23:08:30.941Z,77.34
2019-05-16T23:10:58.045Z,76.64
2019-05-16T23:13:26.721Z,77.33
2019-05-16T23:15:54.070Z,76.72
2019-05-16T23:18:21.165Z,76.39
2019-05-16T23:20:48.276Z,76.38
2019-05-16T23:23:17.398Z,76.65
2019-05-16T23:25:46.185Z,77.15
2019-05-16T23:28:17.291Z,76.02
2019-05-16T23:30:44.339Z,76.80
2019-05-16T23:33:11.387Z,76.36
2019-05-16T23:35:38.470Z,76.13
2019-05-16T23:38:16.453Z,75.96
2019-05-16T23:40:34.573Z,75.73
2019-05-16T23:43:02.267Z,75.24
2019-05-16T23:45:29.288Z,74.84
2019-05-16T23:47:57.938Z,75.70
2019-05-16T23:50:27.574Z,76.01
2019-05-16T23:52:56.300Z,75.49
2019-05-16T23:55:27.629Z,74.77
2019-05-16T23:57:53.827Z,75.19
